Terminal Aerodrome Forecast
Issued by NWS Wakefield, VA

Home | Current Version | Previous Version | Text Only | Print | Product List | Glossary On
Versions: 1 2 3 4 5 6 7 8 9 10 11 12 13 14 15 16 17 18 19 20 21 22 23 24 25 26 27 28 29 30 31 32 33 34 35 36 37 38
000
FTUS41 KAKQ 231013 AAE
TAFRIC
TAF AMD
KRIC 231013Z 2310/2406 07010G16KT 3SM -SHRA BR OVC006
      TEMPO 2310/2312 1SM SHRA BR OVC003
     FM231300 07011KT 2SM SHRA BR OVC003
     FM231700 06008KT 4SM -DZ BR OVC003
     FM232100 36005KT 5SM -SHRA OVC007
     FM240000 34008KT 6SM -SHRA OVC005=

USA.gov is the U.S. government's official web portal to all federal, state and local government web resources and services.